sensor_id;sensor_type;location;lat;lon;timestamp;P1;durP1;ratioP1;P2;durP2;ratioP2
70946;SDS011;58605;48.700;8.760;2022-10-17T00:00:24;10.97;;;6.27;;
70946;SDS011;58605;48.700;8.760;2022-10-17T00:02:51;10.30;;;6.33;;
70946;SDS011;58605;48.700;8.760;2022-10-17T00:05:19;11.87;;;6.90;;
70946;SDS011;58605;48.700;8.760;2022-10-17T00:07:45;6.33;;;5.73;;
70946;SDS011;58605;48.700;8.760;2022-10-17T00:10:11;7.07;;;5.53;;
70946;SDS011;58605;48.700;8.760;2022-10-17T00:12:37;11.20;;;6.77;;
70946;SDS011;58605;48.700;8.760;2022-10-17T00:15:03;9.27;;;5.87;;
70946;SDS011;58605;48.700;8.760;2022-10-17T00:17:30;11.13;;;5.90;;
70946;SDS011;58605;48.700;8.760;2022-10-17T00:19:58;38.40;;;7.07;;
70946;SDS011;58605;48.700;8.760;2022-10-17T00:22:24;8.40;;;6.60;;
70946;SDS011;58605;48.700;8.760;2022-10-17T00:24:51;9.83;;;5.83;;
70946;SDS011;58605;48.700;8.760;2022-10-17T00:27:17;7.33;;;6.10;;
70946;SDS011;58605;48.700;8.760;2022-10-17T00:29:46;41.07;;;6.67;;
70946;SDS011;58605;48.700;8.760;2022-10-17T00:32:13;26.37;;;5.90;;
70946;SDS011;58605;48.700;8.760;2022-10-17T00:34:38;114.57;;;9.57;;
70946;SDS011;58605;48.700;8.760;2022-10-17T00:37:06;140.77;;;10.53;;
70946;SDS011;58605;48.700;8.760;2022-10-17T00:39:32;93.13;;;8.53;;
70946;SDS011;58605;48.700;8.760;2022-10-17T00:41:58;74.67;;;8.37;;
70946;SDS011;58605;48.700;8.760;2022-10-17T00:47:26;19.47;;;6.83;;
70946;SDS011;58605;48.700;8.760;2022-10-17T00:49:53;46.20;;;6.80;;
70946;SDS011;58605;48.700;8.760;2022-10-17T00:52:22;45.90;;;7.30;;
70946;SDS011;58605;48.700;8.760;2022-10-17T00:54:53;61.30;;;7.57;;
70946;SDS011;58605;48.700;8.760;2022-10-17T00:57:21;40.57;;;7.10;;
70946;SDS011;58605;48.700;8.760;2022-10-17T00:59:49;163.20;;;12.10;;
70946;SDS011;58605;48.700;8.760;2022-10-17T01:02:19;128.03;;;10.00;;
70946;SDS011;58605;48.700;8.760;2022-10-17T01:04:47;100.10;;;9.37;;
70946;SDS011;58605;48.700;8.760;2022-10-17T01:07:15;57.00;;;7.33;;
70946;SDS011;58605;48.700;8.760;2022-10-17T01:09:43;124.03;;;9.33;;
70946;SDS011;58605;48.700;8.760;2022-10-17T01:12:12;103.67;;;8.53;;
70946;SDS011;58605;48.700;8.760;2022-10-17T01:14:45;209.50;;;15.17;;
70946;SDS011;58605;48.700;8.760;2022-10-17T01:17:21;195.17;;;14.07;;
70946;SDS011;58605;48.700;8.760;2022-10-17T01:20:04;120.83;;;10.17;;
70946;SDS011;58605;48.700;8.760;2022-10-17T01:23:04;15.50;;;8.37;;
70946;SDS011;58605;48.700;8.760;2022-10-17T01:25:45;15.90;;;7.50;;
70946;SDS011;58605;48.700;8.760;2022-10-17T01:28:18;9.53;;;7.57;;
70946;SDS011;58605;48.700;8.760;2022-10-17T01:31:07;22.67;;;8.60;;
70946;SDS011;58605;48.700;8.760;2022-10-17T01:33:40;24.10;;;8.13;;
70946;SDS011;58605;48.700;8.760;2022-10-17T01:36:11;31.30;;;9.20;;
70946;SDS011;58605;48.700;8.760;2022-10-17T01:38:45;13.60;;;7.97;;
70946;SDS011;58605;48.700;8.760;2022-10-17T01:41:16;7.77;;;7.00;;
70946;SDS011;58605;48.700;8.760;2022-10-17T01:43:52;11.00;;;7.53;;
70946;SDS011;58605;48.700;8.760;2022-10-17T01:46:26;209.77;;;16.57;;
70946;SDS011;58605;48.700;8.760;2022-10-17T01:48:57;43.77;;;8.23;;
70946;SDS011;58605;48.700;8.760;2022-10-17T01:51:26;24.60;;;8.07;;
70946;SDS011;58605;48.700;8.760;2022-10-17T01:53:57;40.17;;;7.33;;
70946;SDS011;58605;48.700;8.760;2022-10-17T01:56:27;53.30;;;7.30;;
70946;SDS011;58605;48.700;8.760;2022-10-17T01:58:57;87.53;;;8.27;;
70946;SDS011;58605;48.700;8.760;2022-10-17T02:01:30;66.93;;;8.10;;
70946;SDS011;58605;48.700;8.760;2022-10-17T02:03:58;53.97;;;8.07;;
70946;SDS011;58605;48.700;8.760;2022-10-17T02:06:25;49.60;;;6.80;;
70946;SDS011;58605;48.700;8.760;2022-10-17T02:08:51;40.27;;;6.03;;
70946;SDS011;58605;48.700;8.760;2022-10-17T02:11:17;33.50;;;6.47;;
70946;SDS011;58605;48.700;8.760;2022-10-17T02:13:59;53.57;;;6.70;;
70946;SDS011;58605;48.700;8.760;2022-10-17T02:16:35;22.57;;;6.20;;
70946;SDS011;58605;48.700;8.760;2022-10-17T02:19:12;35.43;;;5.83;;
70946;SDS011;58605;48.700;8.760;2022-10-17T02:22:01;19.10;;;5.40;;
70946;SDS011;58605;48.700;8.760;2022-10-17T02:24:38;66.60;;;7.20;;
70946;SDS011;58605;48.700;8.760;2022-10-17T02:27:13;25.43;;;5.83;;
70946;SDS011;58605;48.700;8.760;2022-10-17T02:29:43;30.17;;;5.27;;
70946;SDS011;58605;48.700;8.760;2022-10-17T02:32:15;45.43;;;6.13;;
70946;SDS011;58605;48.700;8.760;2022-10-17T02:34:48;25.93;;;5.50;;
70946;SDS011;58605;48.700;8.760;2022-10-17T02:37:18;36.90;;;6.03;;
70946;SDS011;58605;48.700;8.760;2022-10-17T02:39:48;24.73;;;5.13;;
70946;SDS011;58605;48.700;8.760;2022-10-17T02:42:15;18.93;;;4.67;;
70946;SDS011;58605;48.700;8.760;2022-10-17T02:44:44;23.13;;;5.13;;
70946;SDS011;58605;48.700;8.760;2022-10-17T02:47:12;17.13;;;5.00;;
70946;SDS011;58605;48.700;8.760;2022-10-17T02:49:46;14.77;;;4.90;;
70946;SDS011;58605;48.700;8.760;2022-10-17T02:52:16;9.60;;;5.13;;
70946;SDS011;58605;48.700;8.760;2022-10-17T02:54:51;11.43;;;4.87;;
70946;SDS011;58605;48.700;8.760;2022-10-17T02:57:21;18.70;;;4.90;;
70946;SDS011;58605;48.700;8.760;2022-10-17T02:59:52;24.10;;;5.00;;
70946;SDS011;58605;48.700;8.760;2022-10-17T03:02:23;28.90;;;5.03;;
70946;SDS011;58605;48.700;8.760;2022-10-17T03:04:49;34.10;;;5.83;;
70946;SDS011;58605;48.700;8.760;2022-10-17T03:07:15;12.83;;;5.57;;
70946;SDS011;58605;48.700;8.760;2022-10-17T03:09:41;14.00;;;5.33;;
70946;SDS011;58605;48.700;8.760;2022-10-17T03:12:07;12.10;;;5.77;;
70946;SDS011;58605;48.700;8.760;2022-10-17T03:14:33;15.67;;;5.60;;
70946;SDS011;58605;48.700;8.760;2022-10-17T03:16:59;31.13;;;5.47;;
70946;SDS011;58605;48.700;8.760;2022-10-17T03:19:27;15.50;;;5.17;;
70946;SDS011;58605;48.700;8.760;2022-10-17T03:21:53;12.77;;;4.93;;
70946;SDS011;58605;48.700;8.760;2022-10-17T03:24:19;5.97;;;4.20;;
70946;SDS011;58605;48.700;8.760;2022-10-17T03:26:45;10.00;;;4.40;;
70946;SDS011;58605;48.700;8.760;2022-10-17T03:29:12;10.40;;;4.37;;
70946;SDS011;58605;48.700;8.760;2022-10-17T03:31:38;5.77;;;4.30;;
70946;SDS011;58605;48.700;8.760;2022-10-17T03:34:04;6.10;;;5.53;;
70946;SDS011;58605;48.700;8.760;2022-10-17T03:36:31;5.67;;;4.90;;
70946;SDS011;58605;48.700;8.760;2022-10-17T03:38:57;4.67;;;4.27;;
70946;SDS011;58605;48.700;8.760;2022-10-17T03:41:23;8.13;;;5.03;;
70946;SDS011;58605;48.700;8.760;2022-10-17T03:43:51;7.43;;;4.57;;
70946;SDS011;58605;48.700;8.760;2022-10-17T03:46:17;4.97;;;4.57;;
70946;SDS011;58605;48.700;8.760;2022-10-17T03:48:50;15.73;;;4.90;;
70946;SDS011;58605;48.700;8.760;2022-10-17T03:51:16;4.87;;;4.30;;
70946;SDS011;58605;48.700;8.760;2022-10-17T03:53:43;8.03;;;4.43;;
70946;SDS011;58605;48.700;8.760;2022-10-17T03:56:10;7.27;;;4.53;;
70946;SDS011;58605;48.700;8.760;2022-10-17T03:58:37;6.23;;;4.53;;
70946;SDS011;58605;48.700;8.760;2022-10-17T04:01:04;6.60;;;4.30;;
70946;SDS011;58605;48.700;8.760;2022-10-17T04:03:30;11.17;;;4.30;;
70946;SDS011;58605;48.700;8.760;2022-10-17T04:05:57;12.80;;;3.47;;
70946;SDS011;58605;48.700;8.760;2022-10-17T04:08:23;78.70;;;6.20;;
70946;SDS011;58605;48.700;8.760;2022-10-17T04:10:52;42.07;;;4.40;;
70946;SDS011;58605;48.700;8.760;2022-10-17T04:13:21;15.53;;;3.40;;
70946;SDS011;58605;48.700;8.760;2022-10-17T04:15:52;6.80;;;2.93;;
70946;SDS011;58605;48.700;8.760;2022-10-17T04:18:19;5.73;;;4.20;;
70946;SDS011;58605;48.700;8.760;2022-10-17T04:20:45;5.37;;;4.40;;
70946;SDS011;58605;48.700;8.760;2022-10-17T04:23:11;6.50;;;5.90;;
70946;SDS011;58605;48.700;8.760;2022-10-17T04:25:37;7.20;;;6.40;;
70946;SDS011;58605;48.700;8.760;2022-10-17T04:28:04;10.33;;;6.90;;
70946;SDS011;58605;48.700;8.760;2022-10-17T04:30:31;9.83;;;8.70;;
70946;SDS011;58605;48.700;8.760;2022-10-17T04:32:57;18.43;;;8.20;;
70946;SDS011;58605;48.700;8.760;2022-10-17T04:35:23;21.40;;;7.17;;
70946;SDS011;58605;48.700;8.760;2022-10-17T04:37:48;34.10;;;6.37;;
70946;SDS011;58605;48.700;8.760;2022-10-17T04:40:14;73.97;;;8.67;;
70946;SDS011;58605;48.700;8.760;2022-10-17T04:42:41;52.03;;;8.37;;
70946;SDS011;58605;48.700;8.760;2022-10-17T04:45:08;35.07;;;7.23;;
70946;SDS011;58605;48.700;8.760;2022-10-17T04:47:35;56.00;;;7.50;;
70946;SDS011;58605;48.700;8.760;2022-10-17T04:50:01;25.23;;;6.40;;
70946;SDS011;58605;48.700;8.760;2022-10-17T04:52:27;40.67;;;7.03;;
70946;SDS011;58605;48.700;8.760;2022-10-17T04:54:53;28.50;;;6.40;;
70946;SDS011;58605;48.700;8.760;2022-10-17T04:57:19;73.60;;;8.80;;
70946;SDS011;58605;48.700;8.760;2022-10-17T04:59:45;71.97;;;7.60;;
70946;SDS011;58605;48.700;8.760;2022-10-17T05:02:12;55.40;;;7.37;;
70946;SDS011;58605;48.700;8.760;2022-10-17T05:04:38;52.60;;;7.03;;
70946;SDS011;58605;48.700;8.760;2022-10-17T05:07:04;23.33;;;6.60;;
70946;SDS011;58605;48.700;8.760;2022-10-17T05:09:30;11.83;;;6.33;;
70946;SDS011;58605;48.700;8.760;2022-10-17T05:11:56;22.43;;;6.47;;
70946;SDS011;58605;48.700;8.760;2022-10-17T05:14:22;20.83;;;6.40;;
70946;SDS011;58605;48.700;8.760;2022-10-17T05:16:48;29.73;;;6.97;;
70946;SDS011;58605;48.700;8.760;2022-10-17T05:19:16;19.13;;;6.57;;
70946;SDS011;58605;48.700;8.760;2022-10-17T05:21:42;15.97;;;6.50;;
70946;SDS011;58605;48.700;8.760;2022-10-17T05:24:09;25.90;;;6.07;;
70946;SDS011;58605;48.700;8.760;2022-10-17T05:26:37;51.00;;;6.27;;
70946;SDS011;58605;48.700;8.760;2022-10-17T05:29:03;20.77;;;5.10;;
70946;SDS011;58605;48.700;8.760;2022-10-17T05:31:30;14.67;;;5.10;;
70946;SDS011;58605;48.700;8.760;2022-10-17T05:33:58;21.33;;;6.20;;
70946;SDS011;58605;48.700;8.760;2022-10-17T05:36:27;19.37;;;6.60;;
70946;SDS011;58605;48.700;8.760;2022-10-17T05:38:53;11.17;;;4.93;;
70946;SDS011;58605;48.700;8.760;2022-10-17T05:41:19;11.17;;;4.40;;
70946;SDS011;58605;48.700;8.760;2022-10-17T05:43:45;17.77;;;4.03;;
70946;SDS011;58605;48.700;8.760;2022-10-17T05:46:11;7.77;;;5.30;;
70946;SDS011;58605;48.700;8.760;2022-10-17T05:48:37;6.27;;;5.67;;
70946;SDS011;58605;48.700;8.760;2022-10-17T05:51:04;6.97;;;5.80;;
70946;SDS011;58605;48.700;8.760;2022-10-17T05:53:34;7.93;;;5.70;;
70946;SDS011;58605;48.700;8.760;2022-10-17T05:56:03;6.63;;;6.00;;
70946;SDS011;58605;48.700;8.760;2022-10-17T05:58:31;14.83;;;7.10;;
70946;SDS011;58605;48.700;8.760;2022-10-17T06:00:59;7.50;;;6.53;;
70946;SDS011;58605;48.700;8.760;2022-10-17T06:03:26;9.07;;;6.63;;
70946;SDS011;58605;48.700;8.760;2022-10-17T06:05:52;6.93;;;5.93;;
70946;SDS011;58605;48.700;8.760;2022-10-17T06:08:18;8.40;;;5.10;;
70946;SDS011;58605;48.700;8.760;2022-10-17T06:10:47;5.70;;;5.10;;
70946;SDS011;58605;48.700;8.760;2022-10-17T06:13:14;6.13;;;5.50;;
70946;SDS011;58605;48.700;8.760;2022-10-17T06:15:40;5.70;;;5.17;;
70946;SDS011;58605;48.700;8.760;2022-10-17T06:18:06;6.23;;;5.60;;
70946;SDS011;58605;48.700;8.760;2022-10-17T06:20:32;9.80;;;5.30;;
70946;SDS011;58605;48.700;8.760;2022-10-17T06:22:58;77.63;;;7.53;;
70946;SDS011;58605;48.700;8.760;2022-10-17T06:25:24;112.63;;;9.50;;
70946;SDS011;58605;48.700;8.760;2022-10-17T06:27:52;76.57;;;7.20;;
70946;SDS011;58605;48.700;8.760;2022-10-17T06:30:18;50.23;;;6.00;;
70946;SDS011;58605;48.700;8.760;2022-10-17T06:32:44;23.33;;;4.47;;
70946;SDS011;58605;48.700;8.760;2022-10-17T06:35:10;6.13;;;5.53;;
70946;SDS011;58605;48.700;8.760;2022-10-17T06:37:36;6.90;;;5.50;;
70946;SDS011;58605;48.700;8.760;2022-10-17T06:40:02;8.27;;;6.00;;
70946;SDS011;58605;48.700;8.760;2022-10-17T06:42:28;6.60;;;5.93;;
70946;SDS011;58605;48.700;8.760;2022-10-17T06:44:56;6.60;;;5.53;;
70946;SDS011;58605;48.700;8.760;2022-10-17T06:47:22;18.50;;;5.87;;
70946;SDS011;58605;48.700;8.760;2022-10-17T06:49:48;13.90;;;5.87;;
70946;SDS011;58605;48.700;8.760;2022-10-17T06:52:14;23.57;;;5.83;;
70946;SDS011;58605;48.700;8.760;2022-10-17T06:54:41;23.43;;;5.77;;
70946;SDS011;58605;48.700;8.760;2022-10-17T06:57:08;26.83;;;6.00;;
70946;SDS011;58605;48.700;8.760;2022-10-17T06:59:34;31.60;;;6.07;;
70946;SDS011;58605;48.700;8.760;2022-10-17T07:02:02;8.87;;;5.73;;
70946;SDS011;58605;48.700;8.760;2022-10-17T07:04:29;6.73;;;5.70;;
70946;SDS011;58605;48.700;8.760;2022-10-17T07:06:55;9.57;;;6.83;;
70946;SDS011;58605;48.700;8.760;2022-10-17T07:09:21;10.33;;;8.77;;
70946;SDS011;58605;48.700;8.760;2022-10-17T07:11:48;11.37;;;9.60;;
70946;SDS011;58605;48.700;8.760;2022-10-17T07:14:14;11.13;;;9.80;;
70946;SDS011;58605;48.700;8.760;2022-10-17T07:16:40;11.03;;;9.30;;
70946;SDS011;58605;48.700;8.760;2022-10-17T07:19:08;11.33;;;8.77;;
70946;SDS011;58605;48.700;8.760;2022-10-17T07:21:34;12.10;;;8.43;;
70946;SDS011;58605;48.700;8.760;2022-10-17T07:24:00;9.37;;;8.27;;
70946;SDS011;58605;48.700;8.760;2022-10-17T07:26:26;10.40;;;8.00;;
70946;SDS011;58605;48.700;8.760;2022-10-17T07:28:52;8.33;;;7.40;;
70946;SDS011;58605;48.700;8.760;2022-10-17T07:31:46;8.63;;;7.63;;
70946;SDS011;58605;48.700;8.760;2022-10-17T07:34:19;12.57;;;8.03;;
70946;SDS011;58605;48.700;8.760;2022-10-17T07:36:45;11.20;;;7.87;;
70946;SDS011;58605;48.700;8.760;2022-10-17T07:39:11;8.97;;;7.60;;
70946;SDS011;58605;48.700;8.760;2022-10-17T07:41:37;10.93;;;8.50;;
70946;SDS011;58605;48.700;8.760;2022-10-17T07:44:03;13.70;;;8.17;;
70946;SDS011;58605;48.700;8.760;2022-10-17T07:46:29;10.50;;;8.07;;
70946;SDS011;58605;48.700;8.760;2022-10-17T07:48:57;11.93;;;7.97;;
70946;SDS011;58605;48.700;8.760;2022-10-17T07:51:23;9.00;;;8.13;;
70946;SDS011;58605;48.700;8.760;2022-10-17T07:53:49;11.37;;;8.33;;
70946;SDS011;58605;48.700;8.760;2022-10-17T07:56:15;12.70;;;8.10;;
70946;SDS011;58605;48.700;8.760;2022-10-17T07:58:41;11.33;;;8.13;;
70946;SDS011;58605;48.700;8.760;2022-10-17T08:01:08;10.40;;;8.30;;
70946;SDS011;58605;48.700;8.760;2022-10-17T08:03:39;11.07;;;7.13;;
70946;SDS011;58605;48.700;8.760;2022-10-17T08:06:07;11.63;;;7.73;;
70946;SDS011;58605;48.700;8.760;2022-10-17T08:08:33;10.83;;;8.00;;
70946;SDS011;58605;48.700;8.760;2022-10-17T08:11:00;10.67;;;7.40;;
70946;SDS011;58605;48.700;8.760;2022-10-17T08:13:27;7.53;;;6.40;;
70946;SDS011;58605;48.700;8.760;2022-10-17T08:15:53;8.37;;;6.83;;
70946;SDS011;58605;48.700;8.760;2022-10-17T08:18:23;9.97;;;6.77;;
70946;SDS011;58605;48.700;8.760;2022-10-17T08:20:49;12.43;;;6.93;;
70946;SDS011;58605;48.700;8.760;2022-10-17T08:23:17;12.23;;;7.17;;
70946;SDS011;58605;48.700;8.760;2022-10-17T08:25:43;8.27;;;6.63;;
70946;SDS011;58605;48.700;8.760;2022-10-17T08:28:09;8.80;;;6.53;;
70946;SDS011;58605;48.700;8.760;2022-10-17T08:30:35;12.53;;;6.87;;
70946;SDS011;58605;48.700;8.760;2022-10-17T08:33:01;12.80;;;6.97;;
70946;SDS011;58605;48.700;8.760;2022-10-17T08:35:27;12.70;;;7.30;;
70946;SDS011;58605;48.700;8.760;2022-10-17T08:37:53;8.07;;;6.23;;
70946;SDS011;58605;48.700;8.760;2022-10-17T08:40:22;6.07;;;5.57;;
70946;SDS011;58605;48.700;8.760;2022-10-17T08:42:54;11.20;;;6.00;;
70946;SDS011;58605;48.700;8.760;2022-10-17T08:45:35;6.67;;;5.60;;
70946;SDS011;58605;48.700;8.760;2022-10-17T08:48:08;10.03;;;6.07;;
70946;SDS011;58605;48.700;8.760;2022-10-17T08:50:38;7.20;;;5.33;;
70946;SDS011;58605;48.700;8.760;2022-10-17T08:53:09;5.27;;;4.87;;
70946;SDS011;58605;48.700;8.760;2022-10-17T08:55:44;7.40;;;5.20;;
70946;SDS011;58605;48.700;8.760;2022-10-17T08:58:11;6.53;;;4.83;;
70946;SDS011;58605;48.700;8.760;2022-10-17T09:00:39;6.47;;;4.30;;
70946;SDS011;58605;48.700;8.760;2022-10-17T09:03:11;4.53;;;4.13;;
70946;SDS011;58605;48.700;8.760;2022-10-17T09:05:47;5.10;;;4.60;;
70946;SDS011;58605;48.700;8.760;2022-10-17T09:08:22;10.50;;;4.53;;
70946;SDS011;58605;48.700;8.760;2022-10-17T09:10:59;6.47;;;4.13;;
70946;SDS011;58605;48.700;8.760;2022-10-17T09:13:36;4.47;;;4.07;;
70946;SDS011;58605;48.700;8.760;2022-10-17T09:16:13;4.37;;;3.50;;
70946;SDS011;58605;48.700;8.760;2022-10-17T09:19:06;6.87;;;4.23;;
70946;SDS011;58605;48.700;8.760;2022-10-17T09:21:39;5.97;;;3.90;;
70946;SDS011;58605;48.700;8.760;2022-10-17T09:24:10;5.23;;;4.00;;
70946;SDS011;58605;48.700;8.760;2022-10-17T09:26:45;4.10;;;3.70;;
70946;SDS011;58605;48.700;8.760;2022-10-17T09:29:14;4.27;;;3.80;;
70946;SDS011;58605;48.700;8.760;2022-10-17T09:31:44;4.03;;;3.63;;
70946;SDS011;58605;48.700;8.760;2022-10-17T09:34:15;3.57;;;3.27;;
70946;SDS011;58605;48.700;8.760;2022-10-17T09:36:41;4.33;;;3.60;;
70946;SDS011;58605;48.700;8.760;2022-10-17T09:39:10;5.33;;;3.97;;
70946;SDS011;58605;48.700;8.760;2022-10-17T09:41:39;3.87;;;3.47;;
70946;SDS011;58605;48.700;8.760;2022-10-17T09:44:14;3.97;;;3.40;;
70946;SDS011;58605;48.700;8.760;2022-10-17T09:46:45;4.50;;;3.40;;
70946;SDS011;58605;48.700;8.760;2022-10-17T09:49:30;4.00;;;3.50;;
70946;SDS011;58605;48.700;8.760;2022-10-17T09:51:58;5.53;;;3.40;;
70946;SDS011;58605;48.700;8.760;2022-10-17T09:54:26;4.63;;;3.80;;
70946;SDS011;58605;48.700;8.760;2022-10-17T09:56:59;5.37;;;3.63;;
70946;SDS011;58605;48.700;8.760;2022-10-17T09:59:32;3.63;;;3.33;;
70946;SDS011;58605;48.700;8.760;2022-10-17T10:02:13;3.67;;;3.37;;
70946;SDS011;58605;48.700;8.760;2022-10-17T10:07:44;3.53;;;3.23;;
70946;SDS011;58605;48.700;8.760;2022-10-17T10:10:25;3.53;;;3.23;;
70946;SDS011;58605;48.700;8.760;2022-10-17T10:13:03;3.23;;;3.00;;
70946;SDS011;58605;48.700;8.760;2022-10-17T10:15:33;3.50;;;3.20;;
70946;SDS011;58605;48.700;8.760;2022-10-17T10:18:02;4.13;;;3.77;;
70946;SDS011;58605;48.700;8.760;2022-10-17T10:20:48;3.93;;;3.10;;
70946;SDS011;58605;48.700;8.760;2022-10-17T10:23:29;3.83;;;3.53;;
70946;SDS011;58605;48.700;8.760;2022-10-17T10:26:03;4.60;;;3.17;;
70946;SDS011;58605;48.700;8.760;2022-10-17T10:28:37;4.20;;;3.03;;
70946;SDS011;58605;48.700;8.760;2022-10-17T10:31:06;4.60;;;3.73;;
70946;SDS011;58605;48.700;8.760;2022-10-17T10:33:35;5.37;;;3.40;;
70946;SDS011;58605;48.700;8.760;2022-10-17T10:36:05;5.97;;;3.60;;
70946;SDS011;58605;48.700;8.760;2022-10-17T10:38:32;5.60;;;3.27;;
70946;SDS011;58605;48.700;8.760;2022-10-17T10:41:01;3.20;;;3.00;;
70946;SDS011;58605;48.700;8.760;2022-10-17T10:43:32;3.33;;;3.07;;
70946;SDS011;58605;48.700;8.760;2022-10-17T10:46:00;4.70;;;3.37;;
70946;SDS011;58605;48.700;8.760;2022-10-17T10:48:30;6.50;;;3.57;;
70946;SDS011;58605;48.700;8.760;2022-10-17T10:50:59;3.70;;;3.30;;
70946;SDS011;58605;48.700;8.760;2022-10-17T10:53:34;4.53;;;3.27;;
70946;SDS011;58605;48.700;8.760;2022-10-17T10:56:09;7.13;;;3.70;;
70946;SDS011;58605;48.700;8.760;2022-10-17T10:58:46;4.47;;;3.90;;
70946;SDS011;58605;48.700;8.760;2022-10-17T11:01:19;4.37;;;3.03;;
70946;SDS011;58605;48.700;8.760;2022-10-17T11:03:55;3.60;;;3.30;;
70946;SDS011;58605;48.700;8.760;2022-10-17T11:06:32;5.43;;;3.60;;
70946;SDS011;58605;48.700;8.760;2022-10-17T11:09:05;3.63;;;3.10;;
70946;SDS011;58605;48.700;8.760;2022-10-17T11:11:42;3.80;;;3.30;;
70946;SDS011;58605;48.700;8.760;2022-10-17T11:14:12;5.13;;;3.53;;
70946;SDS011;58605;48.700;8.760;2022-10-17T11:16:43;4.43;;;3.00;;
70946;SDS011;58605;48.700;8.760;2022-10-17T11:19:19;3.67;;;2.90;;
70946;SDS011;58605;48.700;8.760;2022-10-17T11:21:52;3.72;;;2.72;;
70946;SDS011;58605;48.700;8.760;2022-10-17T11:24:31;5.80;;;3.13;;
70946;SDS011;58605;48.700;8.760;2022-10-17T11:27:03;4.83;;;2.90;;
70946;SDS011;58605;48.700;8.760;2022-10-17T11:29:31;4.63;;;3.30;;
70946;SDS011;58605;48.700;8.760;2022-10-17T11:31:59;3.80;;;3.40;;
70946;SDS011;58605;48.700;8.760;2022-10-17T11:34:32;4.30;;;3.20;;
70946;SDS011;58605;48.700;8.760;2022-10-17T11:37:03;4.37;;;3.50;;
70946;SDS011;58605;48.700;8.760;2022-10-17T11:39:39;4.63;;;3.40;;
70946;SDS011;58605;48.700;8.760;2022-10-17T11:42:09;3.13;;;2.83;;
70946;SDS011;58605;48.700;8.760;2022-10-17T11:44:39;3.93;;;3.53;;
70946;SDS011;58605;48.700;8.760;2022-10-17T11:47:10;3.97;;;3.07;;
70946;SDS011;58605;48.700;8.760;2022-10-17T11:49:54;3.63;;;3.33;;
70946;SDS011;58605;48.700;8.760;2022-10-17T11:52:33;3.83;;;3.30;;
70946;SDS011;58605;48.700;8.760;2022-10-17T11:55:04;4.53;;;3.23;;
70946;SDS011;58605;48.700;8.760;2022-10-17T11:57:40;5.03;;;3.10;;
70946;SDS011;58605;48.700;8.760;2022-10-17T12:00:19;4.50;;;3.50;;
70946;SDS011;58605;48.700;8.760;2022-10-17T12:02:56;3.80;;;3.17;;
70946;SDS011;58605;48.700;8.760;2022-10-17T12:05:36;4.73;;;2.93;;
70946;SDS011;58605;48.700;8.760;2022-10-17T12:08:10;4.93;;;2.57;;
70946;SDS011;58605;48.700;8.760;2022-10-17T12:10:44;4.30;;;2.67;;
70946;SDS011;58605;48.700;8.760;2022-10-17T12:16:36;3.33;;;2.63;;
70946;SDS011;58605;48.700;8.760;2022-10-17T12:19:20;3.13;;;2.80;;
70946;SDS011;58605;48.700;8.760;2022-10-17T12:27:41;4.00;;;2.70;;
70946;SDS011;58605;48.700;8.760;2022-10-17T12:30:15;5.45;;;3.15;;
70946;SDS011;58605;48.700;8.760;2022-10-17T12:32:53;2.88;;;2.58;;
70946;SDS011;58605;48.700;8.760;2022-10-17T12:35:23;4.53;;;3.10;;
70946;SDS011;58605;48.700;8.760;2022-10-17T12:38:04;5.85;;;2.63;;
70946;SDS011;58605;48.700;8.760;2022-10-17T12:40:50;3.63;;;2.50;;
70946;SDS011;58605;48.700;8.760;2022-10-17T12:55:16;3.42;;;3.08;;
70946;SDS011;58605;48.700;8.760;2022-10-17T12:57:47;5.07;;;2.95;;
70946;SDS011;58605;48.700;8.760;2022-10-17T13:00:20;3.08;;;2.88;;
70946;SDS011;58605;48.700;8.760;2022-10-17T13:02:51;4.53;;;3.10;;
70946;SDS011;58605;48.700;8.760;2022-10-17T13:05:23;4.15;;;3.20;;
70946;SDS011;58605;48.700;8.760;2022-10-17T13:07:52;4.72;;;2.78;;
70946;SDS011;58605;48.700;8.760;2022-10-17T13:10:23;5.95;;;2.95;;
70946;SDS011;58605;48.700;8.760;2022-10-17T13:12:53;3.83;;;2.55;;
70946;SDS011;58605;48.700;8.760;2022-10-17T13:15:27;3.92;;;3.08;;
70946;SDS011;58605;48.700;8.760;2022-10-17T13:17:56;4.15;;;3.00;;
70946;SDS011;58605;48.700;8.760;2022-10-17T13:20:23;3.50;;;2.72;;
70946;SDS011;58605;48.700;8.760;2022-10-17T13:22:52;3.45;;;3.15;;
70946;SDS011;58605;48.700;8.760;2022-10-17T13:25:19;6.65;;;3.25;;
70946;SDS011;58605;48.700;8.760;2022-10-17T13:27:47;3.55;;;2.50;;
70946;SDS011;58605;48.700;8.760;2022-10-17T13:30:21;3.90;;;3.00;;
70946;SDS011;58605;48.700;8.760;2022-10-17T13:32:49;4.07;;;2.90;;
70946;SDS011;58605;48.700;8.760;2022-10-17T13:35:20;4.85;;;3.15;;
70946;SDS011;58605;48.700;8.760;2022-10-17T13:37:48;4.15;;;2.88;;
70946;SDS011;58605;48.700;8.760;2022-10-17T13:40:16;3.20;;;2.85;;
70946;SDS011;58605;48.700;8.760;2022-10-17T13:42:43;5.30;;;3.03;;
70946;SDS011;58605;48.700;8.760;2022-10-17T13:45:15;4.40;;;2.72;;
70946;SDS011;58605;48.700;8.760;2022-10-17T13:47:44;4.32;;;2.95;;
70946;SDS011;58605;48.700;8.760;2022-10-17T13:50:15;3.22;;;2.72;;
70946;SDS011;58605;48.700;8.760;2022-10-17T13:52:47;4.68;;;3.08;;
70946;SDS011;58605;48.700;8.760;2022-10-17T13:55:14;3.00;;;2.80;;
70946;SDS011;58605;48.700;8.760;2022-10-17T13:57:44;3.25;;;2.80;;
70946;SDS011;58605;48.700;8.760;2022-10-17T14:00:14;5.82;;;2.80;;
70946;SDS011;58605;48.700;8.760;2022-10-17T14:02:45;4.38;;;3.58;;
70946;SDS011;58605;48.700;8.760;2022-10-17T14:05:13;5.40;;;3.10;;
70946;SDS011;58605;48.700;8.760;2022-10-17T14:07:43;3.08;;;2.78;;
70946;SDS011;58605;48.700;8.760;2022-10-17T14:10:17;3.53;;;2.80;;
70946;SDS011;58605;48.700;8.760;2022-10-17T14:12:45;5.22;;;2.95;;
70946;SDS011;58605;48.700;8.760;2022-10-17T14:15:12;3.20;;;2.90;;
70946;SDS011;58605;48.700;8.760;2022-10-17T14:17:41;7.32;;;3.25;;
70946;SDS011;58605;48.700;8.760;2022-10-17T14:20:15;5.07;;;2.95;;
70946;SDS011;58605;48.700;8.760;2022-10-17T14:22:43;5.78;;;3.40;;
70946;SDS011;58605;48.700;8.760;2022-10-17T14:28:00;5.53;;;3.13;;
70946;SDS011;58605;48.700;8.760;2022-10-17T14:30:33;4.07;;;2.65;;
70946;SDS011;58605;48.700;8.760;2022-10-17T14:33:02;4.90;;;2.60;;
70946;SDS011;58605;48.700;8.760;2022-10-17T14:35:31;6.30;;;3.10;;
70946;SDS011;58605;48.700;8.760;2022-10-17T14:37:59;4.72;;;2.90;;
70946;SDS011;58605;48.700;8.760;2022-10-17T14:40:27;5.82;;;3.17;;
70946;SDS011;58605;48.700;8.760;2022-10-17T14:42:56;4.15;;;3.00;;
70946;SDS011;58605;48.700;8.760;2022-10-17T14:45:25;4.28;;;3.00;;
70946;SDS011;58605;48.700;8.760;2022-10-17T14:47:53;7.60;;;3.30;;
70946;SDS011;58605;48.700;8.760;2022-10-17T14:50:23;4.05;;;3.33;;
70946;SDS011;58605;48.700;8.760;2022-10-17T14:53:00;3.67;;;3.30;;
70946;SDS011;58605;48.700;8.760;2022-10-17T14:55:28;6.82;;;3.40;;
70946;SDS011;58605;48.700;8.760;2022-10-17T14:57:55;4.65;;;3.40;;
70946;SDS011;58605;48.700;8.760;2022-10-17T15:00:21;4.78;;;3.22;;
70946;SDS011;58605;48.700;8.760;2022-10-17T15:02:48;3.90;;;3.28;;
70946;SDS011;58605;48.700;8.760;2022-10-17T15:05:16;4.00;;;3.25;;
70946;SDS011;58605;48.700;8.760;2022-10-17T15:07:45;6.28;;;3.40;;
70946;SDS011;58605;48.700;8.760;2022-10-17T15:10:20;5.18;;;4.03;;
70946;SDS011;58605;48.700;8.760;2022-10-17T15:12:51;5.50;;;3.40;;
70946;SDS011;58605;48.700;8.760;2022-10-17T15:15:17;7.30;;;3.65;;
70946;SDS011;58605;48.700;8.760;2022-10-17T15:17:43;5.47;;;3.67;;
70946;SDS011;58605;48.700;8.760;2022-10-17T15:20:10;3.72;;;3.15;;
70946;SDS011;58605;48.700;8.760;2022-10-17T15:22:39;4.93;;;3.30;;
70946;SDS011;58605;48.700;8.760;2022-10-17T15:25:08;6.47;;;3.67;;